Dingwall, Canada
Current Conditions -  °F | °C
As of 2:00 AM on Thursday 23 Oct 2014 (Local Time) from CYQY Reporting Station
Broken Clouds Broken Clouds  
Wind Chill: 50°   Ceiling: 2300
Heat Index: 50°   Visibility: 15mi
Dew Point: 45°   Wind: 10mph
Humidity: 82%   Direction: 100°E
Pressure: 30.33"   Gusts: NA
Location:  46.9°N, 60.47°W
Report Text: CYQY 230500Z 10009KT 15SM BKN023 10/07 A3033 RMK SC6 SLP272
Loading
Personal Weather Stations






























Interactive Weather Map
Tropical Storm Tracking
New forecast layout! Learn more

10-Day Weather Forecast

Advertisements
Track Severe Weather on mobile